createdAt,value
2023-03-23T15:57:52.734Z,94031.78
2023-03-23T16:00:21.512Z,94034.78
2023-03-23T16:02:55.147Z,94030.63
2023-03-23T16:05:21.956Z,94029.75
2023-03-23T16:07:48.781Z,94033.63
2023-03-23T16:10:21.363Z,94030.97
2023-03-23T16:12:48.232Z,94029.78
2023-03-23T16:15:15.782Z,94031.16
2023-03-23T16:17:43.393Z,94032.75
2023-03-23T16:20:22.194Z,94042.81
2023-03-23T16:22:50.903Z,94043.19
2023-03-23T16:25:19.039Z,94049.72
2023-03-23T16:27:51.282Z,94042.72
2023-03-23T16:30:27.182Z,94041.94
2023-03-23T16:32:55.464Z,94046.50
2023-03-23T16:35:22.820Z,94046.50
2023-03-23T16:38:07.679Z,94043.78
2023-03-23T16:40:35.553Z,94047.88
2023-03-23T16:43:02.139Z,94040.88
2023-03-23T16:45:43.127Z,94044.31
2023-03-23T16:48:11.993Z,94048.47
2023-03-23T16:50:39.216Z,94047.28
2023-03-23T16:53:08.127Z,94049.97
2023-03-23T16:55:35.849Z,94047.91
2023-03-23T16:58:15.418Z,94046.72
2023-03-23T17:00:44.767Z,94044.03
2023-03-23T17:03:11.516Z,94046.31
2023-03-23T17:05:38.535Z,94042.78
2023-03-23T17:08:05.912Z,94036.63
2023-03-23T17:10:32.989Z,94047.38
2023-03-23T17:12:59.950Z,94051.63
2023-03-23T17:15:26.875Z,94053.81
2023-03-23T17:17:55.155Z,94057.25
2023-03-23T17:20:23.082Z,94058.41
2023-03-23T17:22:50.305Z,94059.13
2023-03-23T17:25:16.999Z,94058.72
2023-03-23T17:27:43.837Z,94064.03
2023-03-23T17:30:11.582Z,94063.53
2023-03-23T17:32:38.404Z,94063.22
2023-03-23T17:35:06.827Z,94076.16
2023-03-23T17:37:34.843Z,94083.09
2023-03-23T17:40:02.289Z,94075.34
2023-03-23T17:42:30.129Z,94086.88
2023-03-23T17:44:56.767Z,94084.16
2023-03-23T17:47:24.225Z,94085.59
2023-03-23T17:49:51.490Z,94092.09
2023-03-23T17:52:20.233Z,94089.38
2023-03-23T17:54:47.039Z,94094.59
2023-03-23T17:57:15.927Z,94091.94
2023-03-23T17:59:42.602Z,94102.59
2023-03-23T18:02:11.167Z,94097.63
2023-03-23T18:04:37.912Z,94108.28
2023-03-23T18:07:05.665Z,94110.09
2023-03-23T18:09:35.153Z,94106.94
2023-03-23T18:12:04.529Z,94114.25
2023-03-23T18:14:34.121Z,94116.16
2023-03-23T18:17:02.266Z,94110.66
2023-03-23T18:19:29.078Z,94107.94
2023-03-23T18:22:10.976Z,94113.59
2023-03-23T18:24:52.737Z,94117.34
2023-03-23T18:27:19.320Z,94116.63
2023-03-23T18:29:46.220Z,94121.94
2023-03-23T18:32:13.006Z,94124.28
2023-03-23T18:34:43.583Z,94116.19
2023-03-23T18:37:13.049Z,94122.00
2023-03-23T18:39:39.747Z,94121.84
2023-03-23T18:42:07.026Z,94132.59
2023-03-23T18:44:34.479Z,94129.56
2023-03-23T18:47:01.423Z,94134.09
2023-03-23T18:49:29.610Z,94136.97
2023-03-23T18:52:01.503Z,94147.94
2023-03-23T18:54:29.059Z,94145.16
2023-03-23T18:56:56.069Z,94144.84
2023-03-23T18:59:30.427Z,94144.81
2023-03-23T19:01:57.965Z,94155.16
2023-03-23T19:04:25.228Z,94151.34
2023-03-23T19:06:51.878Z,94157.47
2023-03-23T19:09:21.270Z,94160.50
2023-03-23T19:11:48.135Z,94159.69
2023-03-23T19:14:17.226Z,94160.88
2023-03-23T19:16:43.990Z,94164.13
2023-03-23T19:19:13.134Z,94159.19
2023-03-23T19:21:46.848Z,94164.78
2023-03-23T19:24:14.128Z,94169.72
2023-03-23T19:26:43.454Z,94169.03
2023-03-23T19:29:26.535Z,94179.00
2023-03-23T19:31:55.399Z,94189.94
2023-03-23T19:34:24.086Z,94179.56
2023-03-23T19:36:59.486Z,94184.41
2023-03-23T19:39:31.374Z,94193.06
2023-03-23T19:41:58.496Z,94195.66
2023-03-23T19:44:25.602Z,94194.81
2023-03-23T19:46:53.467Z,94195.75
2023-03-23T19:49:20.224Z,94198.00
2023-03-23T19:51:46.891Z,94202.00
2023-03-23T19:54:13.569Z,94207.28
2023-03-23T19:56:40.507Z,94209.22
2023-03-23T19:59:10.573Z,94216.09
2023-03-23T20:01:37.432Z,94215.75
2023-03-23T20:04:05.341Z,94222.59
2023-03-23T20:06:32.819Z,94217.19
2023-03-23T20:09:03.115Z,94217.09
2023-03-23T20:11:30.788Z,94225.63
2023-03-23T20:13:57.841Z,94232.25
2023-03-23T20:16:26.199Z,94230.66
2023-03-23T20:18:53.656Z,94226.28
2023-03-23T20:21:22.836Z,94221.91
2023-03-23T20:23:53.154Z,94229.88
2023-03-23T20:26:32.686Z,94227.34
2023-03-23T20:29:00.691Z,94226.75
2023-03-23T20:31:30.378Z,94221.53
2023-03-23T20:34:03.117Z,94225.13
2023-03-23T20:36:35.055Z,94225.91
2023-03-23T20:39:10.707Z,94222.69
2023-03-23T20:41:38.921Z,94223.81
2023-03-23T20:44:07.892Z,94228.19
2023-03-23T20:46:35.340Z,94217.66
2023-03-23T20:49:02.739Z,94232.03
2023-03-23T20:51:29.820Z,94224.06
2023-03-23T20:53:56.451Z,94219.34
2023-03-23T20:56:24.486Z,94216.75
2023-03-23T20:58:51.439Z,94219.09
2023-03-23T21:01:18.196Z,94225.84
2023-03-23T21:03:44.927Z,94233.09
2023-03-23T21:06:11.981Z,94224.19
2023-03-23T21:08:40.808Z,94225.59
2023-03-23T21:11:10.370Z,94224.19
2023-03-23T21:13:37.085Z,94239.56
2023-03-23T21:16:05.217Z,94233.56
2023-03-23T21:18:32.166Z,94229.97
2023-03-23T21:21:00.482Z,94226.53
2023-03-23T21:23:29.695Z,94224.91
2023-03-23T21:26:02.230Z,94216.44
2023-03-23T21:28:29.593Z,94211.31
2023-03-23T21:31:05.201Z,94215.03
2023-03-23T21:33:32.240Z,94214.06
2023-03-23T21:36:00.431Z,94216.88
2023-03-23T21:38:28.083Z,94225.03
2023-03-23T21:40:56.386Z,94217.88
2023-03-23T21:43:27.577Z,94220.97
2023-03-23T21:45:56.620Z,94220.63
2023-03-23T21:48:24.081Z,94217.72
2023-03-23T21:50:50.874Z,94217.31
2023-03-23T21:53:20.728Z,94222.22
2023-03-23T21:55:51.843Z,94221.38
2023-03-23T21:58:20.200Z,94220.53
2023-03-23T22:00:49.970Z,94221.84
2023-03-23T22:03:18.948Z,94231.22
2023-03-23T22:05:46.474Z,94222.06
2023-03-23T22:08:13.992Z,94223.63
2023-03-23T22:10:43.001Z,94220.16
2023-03-23T22:13:31.682Z,94230.34
2023-03-23T22:16:01.126Z,94232.88
2023-03-23T22:18:28.639Z,94227.38
2023-03-23T22:20:56.762Z,94223.41
2023-03-23T22:23:23.432Z,94225.22
2023-03-23T22:25:50.154Z,94221.75
2023-03-23T22:28:19.530Z,94225.69
2023-03-23T22:30:47.709Z,94232.47
2023-03-23T22:33:14.747Z,94231.59
2023-03-23T22:35:41.483Z,94237.28
2023-03-23T22:38:08.159Z,94238.16
2023-03-23T22:40:34.982Z,94242.56
2023-03-23T22:43:03.259Z,94241.97
2023-03-23T22:45:30.238Z,94240.16
2023-03-23T22:47:58.158Z,94241.69
2023-03-23T22:50:25.010Z,94232.47
2023-03-23T22:52:51.739Z,94242.63
2023-03-23T22:55:18.572Z,94241.97
2023-03-23T22:57:45.892Z,94237.28
2023-03-23T23:00:18.670Z,94244.72
2023-03-23T23:02:45.843Z,94232.47
2023-03-23T23:05:13.883Z,94232.47
2023-03-23T23:07:40.959Z,94226.59
2023-03-23T23:10:08.262Z,94226.69
2023-03-23T23:12:35.417Z,94232.03
2023-03-23T23:15:04.656Z,94236.63
2023-03-23T23:17:35.108Z,94232.63
2023-03-23T23:20:05.774Z,94230.91
2023-03-23T23:22:33.550Z,94235.06
2023-03-23T23:25:01.251Z,94233.59
2023-03-23T23:27:27.935Z,94227.28
2023-03-23T23:29:54.680Z,94230.66
2023-03-23T23:32:21.554Z,94231.94
2023-03-23T23:34:48.516Z,94219.03
2023-03-23T23:37:15.416Z,94221.44
2023-03-23T23:39:42.623Z,94221.84
2023-03-23T23:42:09.810Z,94218.06
2023-03-23T23:44:36.835Z,94219.34
2023-03-23T23:47:04.586Z,94210.38
2023-03-23T23:49:34.216Z,94214.78
2023-03-23T23:52:01.170Z,94213.91
2023-03-23T23:54:30.819Z,94209.88
2023-03-23T23:56:59.340Z,94211.34
2023-03-23T23:59:26.696Z,94201.25
